Relevés horaires Beauvechain (Belgique)


Relevés horaires à Beauvechain - Vendredi 28 Juill. 2017
Heure UTC1 Température [°C] Vent [km/h] Hum. [%] Pres.4 [hPa] Visi. [Km] Nébu. [octa] Préc.5 [mm] Cond.
2m. Res. Ros. Dir.2 Vit. Moy. Raf.3
23:00 17.7 17.7 12.1 S 5.6 -- 9.3 70 1012.5(-1.4/3h) 20 -- -- --
22:00 16.5 16.5 13.4 SE 5.6 -- 9.3 82 1012.7(-1.4/3h) 20 -- -- --
21:00 16.2 16.2 13.9 SSE 3.7 -- 13.0 86 1013.5(-0.2/3h) 20 -- -- NA
20:00 16.2 16.2 13.5 NNO 1.9 -- 9.3 84 1014.1(0.3/3h) 20 -- -- NA
19:00 17.8 17.8 12.2 O 5.6 -- 13.0 70 1014.1(0.5/3h) 20 -- -- NA
18:00 19.0 19.0 11.5 NNO 3.7 -- 22.2 62 1013.7(0.3/3h) 20 -- -- Il y a de la pluie faible et continue à la station au moment de l'observation
17:00 20.0 20.0 11.1 O 5.6 -- 13.0 57 1013.6(0.2/3h) 20 -- -- --
16:00 20.9 20.9 10.1 OSO 7.4 -- 18.5 50 1013.3(0.1/3h) 20 -- -- --
15:00 21.3 21.3 9.6 OSO 11.1 -- 22.2 47 1013.2(0.0/3h) 20 7/8 -- --
14:00 20.8 20.8 10.6 SO 13.0 -- 22.2 52 1013.2(0.2/3h) 20 6/8 -- --
13:00 20.6 20.6 9.7 OSO 14.8 -- 20.4 50 1013.2(0.2/3h) 20 6/8 -- --
12:00 19.9 19.9 10.5 OSO 13.0 -- 22.2 55 1013.2(0.4/3h) 20 6/8 -- --
11:00 19.0 19.0 11.4 OSO 13.0 -- 20.4 61 1013.1(0.4/3h) 20 5/8 -- --
10:00 18.3 18.3 11.1 OSO 13.0 -- 20.4 63 1013(0.7/3h) 20 6/8 -- --
09:00 17.2 17.1 11.1 SO 11.1 -- 22.2 67 1013(1.6/3h) 17 5/8 -- --
08:00 16.4 16.4 11.8 OSO 9.3 -- 20.4 74 1012.7(1.5/3h) 15 5/8 -- --
07:00 16.2 15.9 11.8 SO 11.1 -- 14.8 75 1012.2(1.4/3h) 20 1/8 -- --
06:00 14.7 14.3 11.4 SO 9.3 -- 14.8 81 1011.6(0.6/3h) 20 1/8 -- --
05:00 13.4 13.1 10.8 SO 7.4 -- 11.1 84 1011.3(0.6/3h) 20 1/8 -- --
04:00 12.9 12.5 10.4 SSO 7.4 -- 11.1 85 1011.1(0.5/3h) 20 1/8 -- --
03:00 13.1 13.1 10.6 SSO 5.6 -- 11.1 85 1011(0.5/3h) 20 -- -- --
02:00 13.1 13.1 10.6 SSO 5.6 -- 7.4 85 1010.7(0.5/3h) 20 -- -- --
01:00 13.7 13.5 10.6 SO 7.4 -- 11.1 82 1010.5(0.3/3h) 20 -- -- --
00:00 14.3 14.3 10.0 SO 5.6 -- 13.0 75 1010.2(0.6/3h) 20 -- -- --

1 Coordinated Universal Time. Actuellement il est 15:00 locale et 14:00 UTC.

2 Le vent souffle depuis la direction indiquée vers la direction oposée.

3 Les rafales max. sont disponible 40 min après l'heure du relevé.

4 Pour les stations d'altitude (plus de 600m) le géopotentiel du niveau le plus proche de la pression obligatoire est indiqué.

5 Les stations disposant d'un diffuseur peuvent indiquer "trace". Cela signifie que des précipitations ont touchés le sol mais que la quantité est inférieure à 0.1 mm.

Récapitulatif de la journée
Température [°C] Vent [km/h] Ensoleillement4 [h] Precipitations totale5 [mm] Pression [Hpa]
Min1 Max.2 Moy.3 Max. Min Max.
12.8 22.1 0 22.2 0 h 0 min 0 1010.2 1014.1

1 Température minimale relevée entre 18:00 UTC la veille et 18:00 UTC le jour donné.

2 Température maximale relevée entre 06:00 UTC le jour donné et 06:00 UTC le lendemain.

3 Vent moyen de la journée basé sur les relevés horaires.

4 Ensoleillement en heures relevé entre 06:00 UTC la veille et 06:00 UTC le jour donné.

5 Précipitations totales tombées entre 06:00 UTC la jour donné et 06:00 UTC le lendemain.

Graphiques horaires